Time;durP1;ratioP1;P1;durP2;ratioP2;P2;SDS_P1;SDS_P2;PMS_P1;PMS_P2;Temp;Humidity;BMP_temperature;BMP_pressure;BME280_temperature;BME280_humidity;BME280_pressure;Samples;Min_cycle;Max_cycle;Signal;HPM_P1;HPM_P2
2021/07/02 00:01:19;;;;;;;8.15;5.57;;;;;;;14.63;74.35;99008.72;3570680;40;20045;-61
2021/07/02 00:03:47;;;;;;;6.40;5.22;;;;;;;14.66;74.24;99004.84;3572120;40;20061;-61
2021/07/02 00:06:15;;;;;;;8.73;6.50;;;;;;;14.69;74.07;99007.03;3571243;40;20060;-61
2021/07/02 00:08:43;;;;;;;7.20;5.65;;;;;;;14.68;73.60;98998.25;3571876;40;20049;-61
2021/07/02 00:11:11;;;;;;;10.27;6.00;;;;;;;14.60;74.19;99001.97;3570850;40;20049;-61
2021/07/02 00:13:38;;;;;;;6.60;5.90;;;;;;;14.65;74.41;99004.00;3569124;40;20053;-61
2021/07/02 00:16:06;;;;;;;6.75;4.72;;;;;;;14.70;74.38;99000.72;3569592;40;20318;-61
2021/07/02 00:18:35;;;;;;;8.10;5.35;;;;;;;14.69;74.21;99004.38;3569920;40;20050;-61
2021/07/02 00:21:03;;;;;;;5.88;4.70;;;;;;;14.75;74.50;99001.69;3569805;40;20045;-61
2021/07/02 00:23:31;;;;;;;6.50;5.15;;;;;;;14.80;74.28;98999.19;3569915;40;20045;-61
2021/07/02 00:25:59;;;;;;;8.50;6.00;;;;;;;14.77;73.86;98996.97;3569549;40;20133;-61
2021/07/02 00:28:27;;;;;;;7.90;5.78;;;;;;;14.84;74.22;98995.06;3570042;40;20138;-61
2021/07/02 00:30:54;;;;;;;10.38;6.03;;;;;;;14.81;73.85;98995.50;3569924;40;20395;-61
2021/07/02 00:33:22;;;;;;;8.30;6.20;;;;;;;14.73;74.10;98993.09;3569993;40;20307;-61
2021/07/02 00:35:52;;;;;;;7.70;5.75;;;;;;;14.67;74.69;99009.94;3569964;40;20048;-61
2021/07/02 00:38:19;;;;;;;6.20;5.30;;;;;;;14.70;74.85;99006.03;3569759;40;20291;-61
2021/07/02 00:40:47;;;;;;;6.32;5.28;;;;;;;14.75;74.50;98998.22;3570022;40;20049;-61
2021/07/02 00:43:15;;;;;;;6.00;4.85;;;;;;;14.70;74.46;98995.41;3569581;40;20418;-61
2021/07/02 00:45:43;;;;;;;6.55;5.60;;;;;;;14.57;74.78;98990.94;3568762;40;20053;-61
2021/07/02 00:48:11;;;;;;;6.97;5.28;;;;;;;14.57;74.98;98991.78;3569100;40;20053;-61
2021/07/02 00:50:39;;;;;;;7.95;4.88;;;;;;;14.69;74.98;98996.41;3569802;40;20433;-61
2021/07/02 00:53:08;;;;;;;7.00;5.70;;;;;;;14.76;74.67;98987.34;3568799;40;20413;-62
2021/07/02 00:55:37;;;;;;;8.05;5.60;;;;;;;14.71;74.75;98987.19;3568729;40;20402;-61
2021/07/02 00:58:05;;;;;;;8.38;5.78;;;;;;;14.69;74.64;98985.75;3568436;40;20332;-61
2021/07/02 01:00:34;;;;;;;6.43;5.22;;;;;;;14.57;74.86;98993.59;3568887;40;20056;-61
2021/07/02 01:03:03;;;;;;;7.93;6.03;;;;;;;14.45;75.19;98992.63;3568756;40;20061;-62
2021/07/02 01:05:32;;;;;;;8.30;5.85;;;;;;;14.47;75.17;98987.91;3568720;40;20052;-62
2021/07/02 01:08:00;;;;;;;9.10;5.53;;;;;;;14.49;75.29;98986.72;3568469;40;20331;-62
2021/07/02 01:10:30;;;;;;;7.43;5.50;;;;;;;14.46;75.00;98988.94;3569854;40;20081;-61
2021/07/02 01:12:58;;;;;;;8.05;5.20;;;;;;;14.46;74.96;98994.28;3569114;40;20045;-61
2021/07/02 01:15:28;;;;;;;10.10;5.88;;;;;;;14.43;75.31;98987.53;3568565;40;20045;-62
2021/07/02 01:18:08;;;;;;;7.47;5.60;;;;;;;14.40;75.19;98985.28;3569171;40;20057;-62
2021/07/02 01:20:39;;;;;;;9.80;5.90;;;;;;;14.40;75.44;98979.97;3568526;40;20335;-61
2021/07/02 01:23:09;;;;;;;6.63;5.47;;;;;;;14.39;75.16;98981.00;3568488;40;20131;-62
2021/07/02 01:25:37;;;;;;;7.38;5.40;;;;;;;14.35;75.14;98988.59;3568149;40;20056;-62
2021/07/02 01:28:10;;;;;;;8.10;6.05;;;;;;;14.39;75.29;98983.66;3568829;40;20033;-63
2021/07/02 01:30:41;;;;;;;7.95;5.32;;;;;;;14.40;74.69;98981.81;3568601;40;20109;-62
2021/07/02 01:33:10;;;;;;;9.20;5.75;;;;;;;14.36;75.07;98979.56;3569415;40;20395;-62
2021/07/02 01:35:39;;;;;;;9.68;5.50;;;;;;;14.32;75.09;98978.38;3568759;40;20401;-62
2021/07/02 01:38:10;;;;;;;9.55;5.78;;;;;;;14.26;75.29;98986.38;3568211;40;20084;-62
2021/07/02 01:40:39;;;;;;;8.60;5.75;;;;;;;14.24;75.01;98975.94;3568693;40;20053;-62
2021/07/02 01:43:07;;;;;;;10.00;5.70;;;;;;;14.20;75.28;98980.06;3569404;40;20049;-62
2021/07/02 01:45:38;;;;;;;7.57;5.43;;;;;;;14.19;75.01;98981.09;3569439;40;20060;-62
2021/07/02 01:48:07;;;;;;;7.20;5.50;;;;;;;14.11;74.92;98982.16;3568383;40;20041;-62
2021/07/02 01:50:35;;;;;;;7.03;5.60;;;;;;;14.08;75.66;98992.38;3569666;40;20446;-62
2021/07/02 01:53:12;;;;;;;7.07;5.47;;;;;;;14.06;75.32;98978.50;3568299;40;20037;-62
2021/07/02 01:55:41;;;;;;;9.27;5.15;;;;;;;14.08;75.38;98987.91;3569518;40;20053;-62
2021/07/02 01:58:10;;;;;;;7.30;5.70;;;;;;;13.99;75.45;98983.81;3569090;40;20123;-62
2021/07/02 02:00:47;;;;;;;7.15;5.05;;;;;;;13.97;75.54;98983.25;3568490;40;20090;-62
2021/07/02 02:03:20;;;;;;;7.30;5.73;;;;;;;13.96;75.75;98984.28;3569422;40;20307;-62
2021/07/02 02:05:49;;;;;;;6.68;5.32;;;;;;;13.94;75.80;98974.88;3568299;40;20318;-62
2021/07/02 02:08:21;;;;;;;8.57;5.50;;;;;;;13.91;75.26;98976.09;3568288;40;20056;-62
2021/07/02 02:10:50;;;;;;;5.90;5.20;;;;;;;13.91;75.45;98978.75;3568343;40;20049;-63
2021/07/02 02:13:21;;;;;;;6.85;5.32;;;;;;;13.94;75.71;98981.00;3568446;40;20026;-62
2021/07/02 02:15:56;;;;;;;7.95;5.18;;;;;;;13.93;75.23;98987.34;3568294;40;20081;-62
2021/07/02 02:18:23;;;;;;;8.40;5.07;;;;;;;13.91;75.39;98986.72;3569271;40;20061;-61
2021/07/02 02:20:54;;;;;;;6.82;5.30;;;;;;;13.90;75.27;98981.63;3568227;40;20055;-61
2021/07/02 02:23:23;;;;;;;8.05;5.00;;;;;;;13.92;75.46;98977.75;3569526;40;20045;-62
2021/07/02 02:25:52;;;;;;;7.93;5.60;;;;;;;13.91;75.77;98981.41;3568468;40;20049;-62
2021/07/02 02:28:27;;;;;;;8.60;5.85;;;;;;;13.89;75.44;98983.47;3569772;40;20045;-61
2021/07/02 02:30:55;;;;;;;10.77;5.40;;;;;;;13.83;75.42;98978.97;3570387;40;20395;-62
2021/07/02 02:33:25;;;;;;;8.20;4.70;;;;;;;13.74;75.30;98977.56;3568593;40;20052;-61
2021/07/02 02:35:53;;;;;;;8.27;5.63;;;;;;;13.71;75.45;98978.81;3568426;40;20049;-63
2021/07/02 02:38:23;;;;;;;10.20;5.57;;;;;;;13.65;75.30;98977.00;3568809;40;20045;-62
2021/07/02 02:40:52;;;;;;;8.98;5.18;;;;;;;13.63;75.28;98971.91;3569996;40;20056;-62
2021/07/02 02:43:19;;;;;;;7.97;5.30;;;;;;;13.53;75.92;98968.84;3568726;40;20053;-62
2021/07/02 02:45:49;;;;;;;7.10;5.57;;;;;;;13.51;75.98;98972.72;3567796;40;20426;-62
2021/07/02 02:48:17;;;;;;;8.00;5.30;;;;;;;13.57;76.29;98979.88;3568038;40;20049;-62
2021/07/02 02:50:45;;;;;;;6.82;5.10;;;;;;;13.56;75.59;98973.75;3568334;40;20049;-61
2021/07/02 02:53:13;;;;;;;7.93;5.85;;;;;;;13.48;75.76;98971.31;3567818;40;20042;-62
2021/07/02 02:55:43;;;;;;;7.57;4.82;;;;;;;13.41;75.90;98973.16;3568106;40;20068;-61
2021/07/02 02:58:12;;;;;;;9.85;5.07;;;;;;;13.43;76.19;98972.94;3567548;40;20366;-61
2021/07/02 03:00:42;;;;;;;8.23;5.30;;;;;;;13.46;75.89;98981.31;3567835;40;20053;-62
2021/07/02 03:03:10;;;;;;;8.57;5.15;;;;;;;13.48;75.56;98991.75;3567720;40;20089;-61
2021/07/02 03:05:39;;;;;;;13.07;5.82;;;;;;;13.48;75.85;98989.09;3568109;40;20315;-61
2021/07/02 03:08:08;;;;;;;8.30;5.85;;;;;;;13.42;75.86;98984.59;3568988;40;20330;-61
2021/07/02 03:10:46;;;;;;;8.27;5.47;;;;;;;13.43;76.00;98988.88;3569956;40;20100;-61
2021/07/02 03:13:13;;;;;;;12.15;5.85;;;;;;;13.41;75.43;98988.28;3573328;40;20049;-62
2021/07/02 03:15:42;;;;;;;10.73;5.22;;;;;;;13.34;75.49;98986.41;3572803;40;20056;-61
2021/07/02 03:18:10;;;;;;;8.73;6.03;;;;;;;13.29;75.64;98988.88;3572355;40;20068;-61
2021/07/02 03:20:39;;;;;;;9.68;5.68;;;;;;;13.23;76.07;98987.06;3571929;40;20049;-62
2021/07/02 03:23:07;;;;;;;7.72;5.32;;;;;;;13.18;76.23;98994.78;3572600;40;20053;-61
2021/07/02 03:25:35;;;;;;;7.50;5.60;;;;;;;13.16;76.39;98990.72;3570086;40;20057;-62
2021/07/02 03:28:07;;;;;;;11.75;5.75;;;;;;;13.16;76.03;98988.06;3569744;40;20052;-62
2021/07/02 03:30:35;;;;;;;7.43;5.78;;;;;;;13.13;76.38;98995.38;3571432;40;20064;-62
2021/07/02 03:33:03;;;;;;;9.63;6.10;;;;;;;13.08;76.54;99000.50;3572565;40;20111;-62
2021/07/02 03:35:31;;;;;;;8.65;6.07;;;;;;;13.05;76.42;98998.25;3569430;40;20049;-61
2021/07/02 03:38:04;;;;;;;8.75;5.82;;;;;;;13.09;76.70;99011.94;3567842;40;20076;-61
2021/07/02 03:40:33;;;;;;;9.95;6.32;;;;;;;13.11;76.31;99007.25;3568439;40;20045;-62
2021/07/02 03:43:04;;;;;;;8.80;5.20;;;;;;;13.09;76.50;99010.09;3568869;40;20053;-62
2021/07/02 03:45:34;;;;;;;13.82;6.13;;;;;;;13.08;76.49;99012.97;3567883;40;20607;-62
2021/07/02 03:48:03;;;;;;;10.40;6.47;;;;;;;13.08;76.36;99016.44;3568707;40;20075;-62
2021/07/02 03:50:35;;;;;;;9.20;6.25;;;;;;;13.15;76.35;99016.44;3567961;40;20325;-62
2021/07/02 03:53:03;;;;;;;8.85;7.05;;;;;;;13.23;76.50;99010.97;3570601;40;20348;-62
2021/07/02 03:55:31;;;;;;;11.55;7.70;;;;;;;13.28;76.76;99013.81;3568694;40;20057;-61
2021/07/02 03:57:59;;;;;;;13.27;7.80;;;;;;;13.28;76.56;99013.81;3567620;40;20081;-62
2021/07/02 04:00:27;;;;;;;10.80;7.20;;;;;;;13.33;76.50;99019.31;3568595;40;20061;-62
2021/07/02 04:02:56;;;;;;;12.35;7.38;;;;;;;13.33;76.26;99016.66;3568716;40;20053;-62
2021/07/02 04:05:24;;;;;;;9.48;7.35;;;;;;;13.35;76.33;99021.78;3568406;40;20045;-63
2021/07/02 04:07:51;;;;;;;10.60;7.18;;;;;;;13.36;76.20;99020.75;3568348;40;20064;-62
2021/07/02 04:10:19;;;;;;;13.55;8.05;;;;;;;13.32;76.55;99014.22;3568446;40;20081;-61
2021/07/02 04:12:47;;;;;;;22.67;9.30;;;;;;;13.26;76.61;99021.16;3570253;40;20057;-61
2021/07/02 04:15:15;;;;;;;15.50;8.60;;;;;;;13.26;76.92;99021.16;3568988;40;20049;-62
2021/07/02 04:17:42;;;;;;;14.98;9.07;;;;;;;13.29;76.71;99025.25;3568045;40;20052;-62
2021/07/02 04:20:14;;;;;;;18.05;9.38;;;;;;;13.33;77.01;99032.59;3568524;40;20053;-62
2021/07/02 04:22:42;;;;;;;17.20;8.82;;;;;;;13.34;76.76;99036.06;3568887;40;20482;-63
2021/07/02 04:25:11;;;;;;;17.35;10.02;;;;;;;13.42;77.03;99029.72;3567880;40;20052;-62
2021/07/02 04:27:40;;;;;;;21.02;11.15;;;;;;;13.53;77.16;99029.94;3568877;40;20026;-60
2021/07/02 04:30:10;;;;;;;21.88;10.57;;;;;;;13.60;76.90;99035.25;3568610;40;20055;-63
2021/07/02 04:32:38;;;;;;;22.10;9.95;;;;;;;13.69;76.82;99041.16;3568545;40;20053;-61
2021/07/02 04:35:09;;;;;;;18.35;12.15;;;;;;;13.81;76.86;99042.97;3568470;40;20060;-62
2021/07/02 04:37:39;;;;;;;17.77;11.68;;;;;;;13.95;76.54;99038.44;3568553;40;20062;-60
2021/07/02 04:40:09;;;;;;;21.05;11.20;;;;;;;14.04;76.32;99036.34;3568398;40;20401;-61
2021/07/02 04:42:38;;;;;;;15.65;10.85;;;;;;;14.14;75.76;99028.78;3568455;40;20065;-61
2021/07/02 04:45:07;;;;;;;15.68;9.57;;;;;;;14.19;75.60;99042.25;3568397;40;20078;-63
2021/07/02 04:47:35;;;;;;;15.75;8.98;;;;;;;14.18;75.24;99043.28;3568005;40;20045;-62
2021/07/02 04:50:04;;;;;;;16.75;9.48;;;;;;;14.16;74.93;99047.97;3567962;40;20045;-62
2021/07/02 04:52:32;;;;;;;14.40;9.85;;;;;;;14.20;74.89;99043.06;3568269;40;20074;-62
2021/07/02 04:55:03;;;;;;;15.13;10.43;;;;;;;14.26;74.53;99043.03;3568304;40;20389;-62
2021/07/02 04:57:30;;;;;;;18.30;11.63;;;;;;;14.40;75.15;99040.31;3568352;40;20388;-62
2021/07/02 05:00:00;;;;;;;16.52;10.35;;;;;;;14.49;74.32;99042.59;3568461;40;20057;-62
2021/07/02 05:02:28;;;;;;;16.90;9.98;;;;;;;14.41;74.38;99045.44;3568582;40;20109;-62
2021/07/02 05:04:56;;;;;;;12.93;9.27;;;;;;;14.35;74.42;99044.44;3569656;40;20053;-62
2021/07/02 05:07:24;;;;;;;17.95;9.93;;;;;;;14.40;74.34;99048.31;3569128;40;20057;-62
2021/07/02 05:09:52;;;;;;;16.27;10.93;;;;;;;14.41;73.78;99047.25;3569379;40;20076;-62
2021/07/02 05:12:21;;;;;;;14.00;9.23;;;;;;;14.46;74.18;99045.63;3569628;40;20093;-62
2021/07/02 05:14:49;;;;;;;12.45;9.90;;;;;;;14.53;73.99;99045.59;3569785;40;20049;-62
2021/07/02 05:17:17;;;;;;;22.00;10.20;;;;;;;14.52;73.73;99054.63;3568668;40;20411;-62
2021/07/02 05:19:44;;;;;;;14.50;9.23;;;;;;;14.54;74.10;99047.25;3568740;40;20085;-62
2021/07/02 05:22:16;;;;;;;11.85;9.05;;;;;;;14.72;74.21;99050.00;3568404;40;20037;-62
2021/07/02 05:24:44;;;;;;;15.07;10.25;;;;;;;14.93;73.08;99046.19;3568641;40;20073;-61
2021/07/02 05:27:12;;;;;;;12.27;9.07;;;;;;;15.01;72.79;99050.47;3569084;40;20356;-62
2021/07/02 05:29:42;;;;;;;13.30;8.50;;;;;;;15.13;71.89;99048.72;3569252;40;20049;-62
2021/07/02 05:32:10;;;;;;;11.88;9.35;;;;;;;15.23;71.50;99053.59;3568636;40;20045;-62
2021/07/02 05:34:37;;;;;;;12.68;9.38;;;;;;;15.26;70.62;99047.81;3569326;40;20049;-62
2021/07/02 05:37:07;;;;;;;11.18;9.30;;;;;;;15.31;70.55;99043.50;3569340;40;20402;-62
2021/07/02 05:39:35;;;;;;;12.18;9.73;;;;;;;15.34;70.08;99044.88;3569537;40;20052;-61
2021/07/02 05:42:03;;;;;;;13.90;9.73;;;;;;;15.33;70.02;99043.25;3569394;40;20030;-61
2021/07/02 05:44:30;;;;;;;11.75;8.35;;;;;;;15.45;70.32;99040.72;3568666;40;20081;-62
2021/07/02 05:46:59;;;;;;;14.93;10.00;;;;;;;15.50;69.16;99047.00;3569181;40;20054;-62
2021/07/02 05:49:27;;;;;;;14.10;9.98;;;;;;;15.56;68.78;99048.00;3569699;40;20311;-62
2021/07/02 05:51:55;;;;;;;14.27;10.25;;;;;;;15.72;67.42;99041.31;3569738;40;20295;-62
2021/07/02 05:54:23;;;;;;;11.63;10.05;;;;;;;15.80;67.54;99041.03;3569619;40;20077;-62
2021/07/02 05:56:51;;;;;;;12.00;9.65;;;;;;;15.79;67.53;99037.53;3568525;40;20411;-62
2021/07/02 05:59:19;;;;;;;13.80;10.48;;;;;;;15.84;67.32;99043.03;3568607;40;20299;-62
2021/07/02 06:01:47;;;;;;;15.38;11.38;;;;;;;15.92;66.73;99047.28;3569489;40;20045;-62
2021/07/02 06:04:16;;;;;;;12.93;9.43;;;;;;;15.78;66.83;99048.44;3570292;40;20119;-62
2021/07/02 06:06:47;;;;;;;12.75;9.60;;;;;;;15.66;67.17;99051.00;3569196;40;20061;-61
2021/07/02 06:09:15;;;;;;;15.85;9.43;;;;;;;15.65;66.97;99059.22;3568629;40;20090;-62
2021/07/02 06:11:42;;;;;;;12.30;8.70;;;;;;;15.57;66.44;99065.59;3569038;40;20311;-62
2021/07/02 06:14:10;;;;;;;15.98;9.95;;;;;;;15.56;66.33;99063.97;3569370;40;20049;-62
2021/07/02 06:16:38;;;;;;;13.73;9.90;;;;;;;15.58;66.55;99061.91;3569148;40;20052;-62
2021/07/02 06:19:06;;;;;;;13.00;9.52;;;;;;;15.66;66.24;99058.19;3569291;40;20077;-62
2021/07/02 06:21:36;;;;;;;11.50;9.40;;;;;;;15.75;66.20;99049.66;3569135;40;20081;-63
2021/07/02 06:24:04;;;;;;;13.68;9.35;;;;;;;15.83;65.35;99054.72;3569277;40;20053;-62
2021/07/02 06:26:32;;;;;;;15.43;8.95;;;;;;;15.89;65.20;99057.56;3568890;40;20140;-62
2021/07/02 06:28:59;;;;;;;12.63;9.95;;;;;;;15.96;65.13;99064.47;3569167;40;20215;-65
2021/07/02 06:31:27;;;;;;;12.65;9.52;;;;;;;16.08;65.08;99062.69;3570214;40;20075;-61
2021/07/02 06:33:55;;;;;;;15.15;11.20;;;;;;;16.25;64.47;99054.91;3570466;40;20048;-62
2021/07/02 06:36:23;;;;;;;16.73;12.20;;;;;;;16.33;64.51;99054.59;3571004;40;20390;-62
2021/07/02 06:38:52;;;;;;;12.63;9.45;;;;;;;16.34;63.66;99056.22;3571307;40;20327;-62
2021/07/02 06:41:19;;;;;;;14.52;9.18;;;;;;;16.40;63.64;99059.84;3570961;40;20053;-63
2021/07/02 06:43:47;;;;;;;11.80;9.25;;;;;;;16.38;63.18;99061.94;3570988;40;20052;-62
2021/07/02 06:46:15;;;;;;;10.75;8.77;;;;;;;16.40;63.39;99061.69;3570655;40;20292;-63
2021/07/02 06:48:43;;;;;;;10.45;8.50;;;;;;;16.50;63.01;99062.81;3570529;40;20052;-62
2021/07/02 06:51:10;;;;;;;12.38;8.73;;;;;;;16.54;62.40;99066.66;3570403;40;20418;-62
2021/07/02 06:53:38;;;;;;;15.98;9.90;;;;;;;16.68;62.09;99063.81;3570106;40;20045;-63
2021/07/02 06:56:08;;;;;;;10.88;8.85;;;;;;;16.76;61.59;99071.53;3569623;40;20374;-62
2021/07/02 06:58:36;;;;;;;16.83;9.68;;;;;;;16.81;61.30;99067.13;3570220;40;20053;-61
2021/07/02 07:01:04;;;;;;;12.07;9.77;;;;;;;16.92;60.72;99072.75;3569821;40;20061;-61
2021/07/02 07:03:32;;;;;;;15.70;9.55;;;;;;;17.02;60.95;99070.34;3569328;40;20057;-62
2021/07/02 07:06:00;;;;;;;14.32;8.05;;;;;;;17.14;59.67;99071.19;3568484;40;20049;-62
2021/07/02 07:08:28;;;;;;;12.77;8.65;;;;;;;17.12;58.76;99067.94;3568711;40;20449;-63
2021/07/02 07:10:56;;;;;;;11.80;8.63;;;;;;;17.12;58.56;99075.97;3568784;40;20045;-62
2021/07/02 07:13:25;;;;;;;14.15;8.55;;;;;;;17.23;58.24;99071.69;3568688;40;20033;-62
2021/07/02 07:15:53;;;;;;;14.35;8.50;;;;;;;17.32;58.28;99076.47;3568806;40;20127;-62
2021/07/02 07:18:20;;;;;;;12.70;8.60;;;;;;;17.42;58.19;99073.22;3568595;40;20054;-62
2021/07/02 07:20:48;;;;;;;11.38;8.07;;;;;;;17.53;57.69;99066.28;3568651;40;20056;-62
2021/07/02 07:23:16;;;;;;;10.30;8.15;;;;;;;17.63;56.91;99063.81;3566792;40;20033;-62
2021/07/02 07:25:44;;;;;;;14.88;8.52;;;;;;;17.72;56.58;99069.66;3568620;40;20053;-62
2021/07/02 07:28:12;;;;;;;12.60;7.93;;;;;;;17.87;55.76;99063.88;3568538;40;20057;-62
2021/07/02 07:30:41;;;;;;;9.48;7.63;;;;;;;17.86;53.73;99060.38;3568811;40;20065;-62
2021/07/02 07:33:09;;;;;;;11.60;8.07;;;;;;;17.89;53.36;99059.09;3568506;40;20049;-63
2021/07/02 07:35:39;;;;;;;23.60;8.52;;;;;;;17.92;53.38;99066.66;3568444;40;20079;-62
2021/07/02 07:38:07;;;;;;;10.60;8.52;;;;;;;17.93;53.05;99065.63;3568004;40;20075;-62
2021/07/02 07:40:35;;;;;;;10.95;8.43;;;;;;;17.93;52.62;99070.97;3568359;40;20081;-62
2021/07/02 07:43:03;;;;;;;11.75;7.68;;;;;;;18.14;52.98;99069.53;3568376;40;20292;-62
2021/07/02 07:45:31;;;;;;;8.73;7.82;;;;;;;18.22;51.83;99070.00;3567311;40;20061;-63
2021/07/02 07:48:00;;;;;;;9.70;8.35;;;;;;;18.27;51.53;99070.09;3568308;40;20053;-62
2021/07/02 07:50:33;;;;;;;9.27;7.80;;;;;;;18.37;51.60;99074.84;3568350;40;20407;-62
2021/07/02 07:53:01;;;;;;;10.52;8.40;;;;;;;18.46;51.29;99086.00;3568635;40;20307;-62
2021/07/02 07:55:31;;;;;;;10.77;8.02;;;;;;;18.58;50.68;99088.66;3568283;40;20041;-62
2021/07/02 07:57:59;;;;;;;11.55;8.40;;;;;;;18.65;50.58;99086.63;3568008;40;20085;-62
2021/07/02 08:00:28;;;;;;;12.93;8.27;;;;;;;18.79;50.39;99088.84;3568236;40;20053;-62
2021/07/02 08:02:56;;;;;;;12.32;8.10;;;;;;;18.88;50.21;99088.44;3567171;40;20049;-62
2021/07/02 08:05:25;;;;;;;10.35;8.30;;;;;;;18.92;49.66;99089.59;3568563;40;20050;-62
2021/07/02 08:07:53;;;;;;;12.27;7.60;;;;;;;19.05;49.44;99089.28;3567781;40;20347;-62
2021/07/02 08:10:22;;;;;;;11.55;8.68;;;;;;;19.36;48.69;99089.84;3568469;40;20080;-63
2021/07/02 08:12:51;;;;;;;9.82;7.63;;;;;;;19.65;48.32;99090.59;3568309;40;20391;-63
2021/07/02 08:15:20;;;;;;;9.38;7.75;;;;;;;19.85;47.15;99098.16;3568609;40;20131;-63
2021/07/02 08:17:48;;;;;;;9.13;7.13;;;;;;;19.92;47.24;99106.81;3567973;40;20046;-62
2021/07/02 08:20:16;;;;;;;9.35;7.53;;;;;;;19.92;47.21;99093.41;3568236;40;20049;-62
2021/07/02 08:22:48;;;;;;;9.82;7.95;;;;;;;20.00;46.81;99093.81;3569033;40;20053;-62
2021/07/02 08:25:16;;;;;;;10.63;7.30;;;;;;;19.97;46.57;99093.50;3567568;40;20081;-62
2021/07/02 08:30:37;;;;;;;10.85;7.40;;;;;;;19.84;46.58;99091.13;3549771;40;20053;-61
2021/07/02 08:33:05;;;;;;;8.80;6.95;;;;;;;19.91;46.32;99086.41;3568272;40;20053;-62
2021/07/02 08:35:33;;;;;;;8.02;6.50;;;;;;;19.97;46.33;99090.81;3570242;40;20056;-62
2021/07/02 08:38:02;;;;;;;8.40;6.45;;;;;;;20.03;45.82;99100.53;3572168;40;20048;-62
2021/07/02 08:40:30;;;;;;;7.95;6.63;;;;;;;20.13;45.37;99099.91;3572757;40;20045;-61
2021/07/02 08:42:58;;;;;;;8.15;7.10;;;;;;;20.24;45.11;99104.31;3571493;40;20057;-62
2021/07/02 08:45:26;;;;;;;18.75;6.75;;;;;;;20.26;44.77;99096.84;3572712;40;20333;-62
2021/07/02 08:47:54;;;;;;;8.40;7.10;;;;;;;20.20;44.69;99103.19;3572070;40;20387;-61
2021/07/02 08:50:23;;;;;;;11.23;7.13;;;;;;;20.21;45.24;99105.66;3571206;40;20045;-62
2021/07/02 08:52:51;;;;;;;9.20;7.07;;;;;;;20.23;45.30;99108.06;3570706;40;20041;-62
2021/07/02 08:55:20;;;;;;;8.77;7.43;;;;;;;20.34;45.06;99103.66;3570635;40;20053;-61
2021/07/02 08:57:48;;;;;;;9.90;6.50;;;;;;;20.45;45.06;99102.72;3570138;40;20056;-62
2021/07/02 09:00:17;;;;;;;8.15;6.60;;;;;;;20.60;45.13;99108.31;3569773;40;20055;-62
2021/07/02 09:02:45;;;;;;;8.00;6.25;;;;;;;20.74;44.83;99108.75;3569713;40;20397;-62
2021/07/02 09:05:36;;;;;;;7.50;6.60;;;;;;;20.94;43.77;99100.06;3569852;40;20323;-61
2021/07/02 09:08:14;;;;;;;8.20;6.80;;;;;;;21.10;43.26;99103.75;3569341;40;20052;-62
2021/07/02 09:10:47;;;;;;;8.10;6.18;;;;;;;20.97;43.20;99103.06;3569514;40;20053;-62
2021/07/02 09:13:16;;;;;;;8.07;6.25;;;;;;;20.81;43.14;99103.16;3569265;40;20326;-62
2021/07/02 09:15:46;;;;;;;8.05;6.53;;;;;;;21.03;43.08;99096.69;3569260;40;20069;-62
2021/07/02 09:18:16;;;;;;;8.07;6.53;;;;;;;21.31;42.64;99104.75;3569309;40;20322;-62
2021/07/02 09:20:47;;;;;;;7.60;6.30;;;;;;;21.60;41.53;99094.56;3569022;40;20053;-63
2021/07/02 09:23:17;;;;;;;7.60;6.40;;;;;;;21.65;41.83;99106.16;3569584;40;20303;-62
2021/07/02 09:25:50;;;;;;;8.65;6.38;;;;;;;21.42;42.45;99111.88;3569229;40;20131;-62
2021/07/02 09:28:26;;;;;;;8.15;6.50;;;;;;;21.21;43.34;99111.66;3568280;40;20045;-63
2021/07/02 09:30:54;;;;;;;8.25;6.63;;;;;;;21.04;43.91;99121.69;3569850;40;20052;-63
2021/07/02 09:33:23;;;;;;;10.13;7.13;;;;;;;20.75;44.28;99116.56;3568166;40;20081;-62
2021/07/02 09:35:54;;;;;;;10.35;7.63;;;;;;;20.66;44.66;99130.69;3569007;40;20441;-63
2021/07/02 09:38:33;;;;;;;9.07;6.85;;;;;;;20.54;45.19;99122.75;3569146;40;20041;-62
2021/07/02 09:41:03;;;;;;;9.32;7.45;;;;;;;20.70;44.72;99131.81;3569164;40;20041;-63
2021/07/02 09:43:31;;;;;;;7.88;6.68;;;;;;;20.78;44.33;99131.38;3569347;40;20061;-63
2021/07/02 09:46:02;;;;;;;8.10;6.70;;;;;;;20.99;44.08;99127.84;3568317;40;20057;-62
2021/07/02 09:48:32;;;;;;;9.88;7.40;;;;;;;20.98;43.92;99136.97;3567745;40;20060;-62
2021/07/02 09:51:00;;;;;;;12.13;8.05;;;;;;;20.80;44.44;99139.16;3569065;40;20050;-62
2021/07/02 09:53:30;;;;;;;10.82;7.05;;;;;;;20.94;44.35;99137.69;3568550;40;20479;-62
2021/07/02 09:55:59;;;;;;;8.15;6.22;;;;;;;21.27;44.18;99128.66;3568910;40;20060;-63
2021/07/02 09:58:30;;;;;;;9.05;7.20;;;;;;;21.41;43.09;99132.56;3568754;40;20061;-62
2021/07/02 10:01:00;;;;;;;9.13;7.53;;;;;;;21.37;43.40;99130.66;3569046;40;20077;-62
2021/07/02 10:03:29;;;;;;;10.60;7.90;;;;;;;21.39;42.90;99133.88;3569014;40;20107;-62
2021/07/02 10:06:00;;;;;;;11.98;9.15;;;;;;;21.33;43.00;99138.41;3567626;40;20042;-63
2021/07/02 10:08:29;;;;;;;12.20;8.60;;;;;;;21.39;43.02;99126.66;3568804;40;20045;-62
2021/07/02 10:10:59;;;;;;;28.15;14.15;;;;;;;21.57;42.82;99136.22;3569090;40;20053;-62
2021/07/02 10:13:29;;;;;;;23.13;13.70;;;;;;;21.61;42.17;99129.25;3568892;40;20078;-63
2021/07/02 10:15:58;;;;;;;12.20;8.65;;;;;;;21.71;42.52;99139.28;3568632;40;20061;-63
2021/07/02 10:18:28;;;;;;;11.38;8.20;;;;;;;21.69;42.75;99131.47;3569157;40;20352;-63
2021/07/02 10:20:59;;;;;;;9.50;7.85;;;;;;;21.83;42.94;99133.72;3569002;40;20320;-63
2021/07/02 10:23:28;;;;;;;10.27;8.15;;;;;;;21.81;41.99;99139.38;3568845;40;20053;-64
2021/07/02 10:25:57;;;;;;;10.13;7.50;;;;;;;21.61;43.04;99136.50;3568838;40;20435;-63
2021/07/02 10:28:27;;;;;;;9.80;7.68;;;;;;;21.59;43.40;99133.25;3570462;40;20104;-64
2021/07/02 10:31:01;;;;;;;10.10;7.90;;;;;;;21.50;43.55;99136.41;3570845;40;20504;-63
2021/07/02 10:33:34;;;;;;;10.27;7.75;;;;;;;21.40;43.44;99132.84;3569744;40;20057;-63
2021/07/02 10:36:14;;;;;;;9.45;7.72;;;;;;;21.33;44.20;99130.34;3570807;40;20060;-64
2021/07/02 10:38:44;;;;;;;8.02;7.20;;;;;;;21.56;44.02;99131.91;3569243;40;20078;-63
2021/07/02 10:41:13;;;;;;;11.18;8.02;;;;;;;21.57;44.04;99133.53;3570791;40;20048;-63
2021/07/02 10:44:02;;;;;;;;;;;;;;;21.39;43.13;99132.03;3570007;40;20057;-63
2021/07/02 10:46:31;;;;;;;11.32;8.13;;;;;;;21.47;43.71;99122.66;3567653;40;19973;-61
2021/07/02 10:49:02;;;;;;;9.98;8.13;;;;;;;21.46;42.94;99121.03;3568732;40;20132;-61
2021/07/02 10:51:50;;;;;;;11.90;9.13;;;;;;;21.59;42.94;99125.19;3568597;40;20053;-61
2021/07/02 10:54:37;;;;;;;8.80;7.90;;;;;;;21.70;41.63;99122.31;3569435;40;20064;-61
2021/07/02 10:57:14;;;;;;;9.68;6.85;;;;;;;21.96;41.39;99115.25;3568450;40;20069;-61
2021/07/02 11:00:08;;;;;;;9.45;7.38;;;;;;;21.99;41.11;99112.03;3567861;40;20395;-62
2021/07/02 11:02:37;;;;;;;8.38;7.20;;;;;;;21.89;40.77;99111.97;3568611;40;20049;-62
2021/07/02 11:05:27;;;;;;;10.18;7.22;;;;;;;21.84;41.16;99119.19;3568717;40;20050;-62
2021/07/02 11:07:55;;;;;;;11.20;7.32;;;;;;;21.84;41.46;99124.56;3568392;40;20071;-62
2021/07/02 11:10:23;;;;;;;10.18;7.25;;;;;;;21.95;41.49;99120.88;3568683;40;20052;-61
2021/07/02 11:13:02;;;;;;;7.78;7.00;;;;;;;22.10;41.28;99104.03;3568401;40;20104;-61
2021/07/02 11:15:30;;;;;;;10.23;7.72;;;;;;;22.12;41.50;99108.06;3568792;40;20049;-62
2021/07/02 11:18:14;;;;;;;9.55;8.02;;;;;;;22.21;41.23;99119.22;3567469;40;20064;-62
2021/07/02 11:20:43;;;;;;;8.25;7.38;;;;;;;22.17;41.31;99104.66;3568584;40;20356;-62
2021/07/02 11:23:23;;;;;;;10.45;7.40;;;;;;;22.40;41.30;99109.59;3568651;40;20053;-62
2021/07/02 11:25:55;;;;;;;10.00;7.72;;;;;;;22.32;41.24;99109.28;3568605;40;20052;-62
2021/07/02 11:28:33;;;;;;;9.93;7.15;;;;;;;22.61;41.35;99106.97;3568631;40;20057;-63
2021/07/02 11:31:04;;;;;;;8.57;7.78;;;;;;;22.73;41.02;99104.88;3568341;40;20319;-62
2021/07/02 11:33:33;;;;;;;7.90;6.90;;;;;;;22.81;41.36;99098.16;3568360;40;20053;-62
2021/07/02 11:36:13;;;;;;;9.43;7.32;;;;;;;22.78;41.03;99102.22;3567244;40;20037;-63
2021/07/02 11:38:47;;;;;;;9.75;7.85;;;;;;;22.83;40.52;99112.19;3568408;40;20052;-62
2021/07/02 11:41:29;;;;;;;8.63;7.55;;;;;;;22.73;40.37;99105.69;3568243;40;20029;-62
2021/07/02 11:44:00;;;;;;;8.57;6.63;;;;;;;22.80;40.38;99105.44;3568555;40;20049;-63